sensor_id;sensor_type;location;lat;lon;timestamp;temperature;humidity
3790;DHT22;1910;49.042;9.028;2023-05-14T00:03:15;11.20;99.90
3790;DHT22;1910;49.042;9.028;2023-05-14T00:05:41;11.10;99.90
3790;DHT22;1910;49.042;9.028;2023-05-14T00:08:06;11.00;99.90
3790;DHT22;1910;49.042;9.028;2023-05-14T00:10:32;10.80;99.90
3790;DHT22;1910;49.042;9.028;2023-05-14T00:12:57;10.70;99.90
3790;DHT22;1910;49.042;9.028;2023-05-14T00:15:23;10.60;99.90
3790;DHT22;1910;49.042;9.028;2023-05-14T00:17:48;10.60;99.90
3790;DHT22;1910;49.042;9.028;2023-05-14T00:20:14;10.50;99.90
3790;DHT22;1910;49.042;9.028;2023-05-14T00:25:07;10.50;99.90
3790;DHT22;1910;49.042;9.028;2023-05-14T00:27:33;10.40;99.90
3790;DHT22;1910;49.042;9.028;2023-05-14T00:29:58;10.40;99.90
3790;DHT22;1910;49.042;9.028;2023-05-14T00:32:24;10.20;99.90
3790;DHT22;1910;49.042;9.028;2023-05-14T00:34:50;10.20;99.90
3790;DHT22;1910;49.042;9.028;2023-05-14T00:37:15;10.20;99.90
3790;DHT22;1910;49.042;9.028;2023-05-14T00:39:41;10.10;99.90
3790;DHT22;1910;49.042;9.028;2023-05-14T00:42:06;10.10;99.90
3790;DHT22;1910;49.042;9.028;2023-05-14T00:44:32;10.00;99.90
3790;DHT22;1910;49.042;9.028;2023-05-14T00:46:58;9.90;99.90
3790;DHT22;1910;49.042;9.028;2023-05-14T00:49:24;9.90;99.90
3790;DHT22;1910;49.042;9.028;2023-05-14T00:51:51;9.90;99.90
3790;DHT22;1910;49.042;9.028;2023-05-14T00:56:44;9.80;99.90
3790;DHT22;1910;49.042;9.028;2023-05-14T00:59:10;9.70;99.90
3790;DHT22;1910;49.042;9.028;2023-05-14T01:01:36;9.60;99.90
3790;DHT22;1910;49.042;9.028;2023-05-14T01:04:02;9.50;99.90
3790;DHT22;1910;49.042;9.028;2023-05-14T01:06:43;9.50;99.90
3790;DHT22;1910;49.042;9.028;2023-05-14T01:09:28;9.50;99.90
3790;DHT22;1910;49.042;9.028;2023-05-14T01:12:16;9.50;99.90
3790;DHT22;1910;49.042;9.028;2023-05-14T01:14:57;9.50;99.90
3790;DHT22;1910;49.042;9.028;2023-05-14T01:17:28;9.40;99.90
3790;DHT22;1910;49.042;9.028;2023-05-14T01:19:55;9.30;99.90
3790;DHT22;1910;49.042;9.028;2023-05-14T01:24:47;9.20;99.90
3790;DHT22;1910;49.042;9.028;2023-05-14T01:27:32;9.10;99.90
3790;DHT22;1910;49.042;9.028;2023-05-14T01:32:47;9.00;99.90
3790;DHT22;1910;49.042;9.028;2023-05-14T01:35:13;9.00;99.90
3790;DHT22;1910;49.042;9.028;2023-05-14T01:37:40;9.00;99.90
3790;DHT22;1910;49.042;9.028;2023-05-14T01:40:07;8.90;99.90
3790;DHT22;1910;49.042;9.028;2023-05-14T01:42:34;9.00;99.90
3790;DHT22;1910;49.042;9.028;2023-05-14T01:45:00;9.00;99.90
3790;DHT22;1910;49.042;9.028;2023-05-14T01:49:51;9.00;99.90
3790;DHT22;1910;49.042;9.028;2023-05-14T01:54:48;8.80;99.90
3790;DHT22;1910;49.042;9.028;2023-05-14T01:57:14;8.70;99.90
3790;DHT22;1910;49.042;9.028;2023-05-14T01:59:40;8.60;99.90
3790;DHT22;1910;49.042;9.028;2023-05-14T02:02:05;8.60;99.90
3790;DHT22;1910;49.042;9.028;2023-05-14T02:04:31;8.60;99.90
3790;DHT22;1910;49.042;9.028;2023-05-14T02:06:56;8.50;99.90
3790;DHT22;1910;49.042;9.028;2023-05-14T02:09:23;8.50;99.90
3790;DHT22;1910;49.042;9.028;2023-05-14T02:11:48;8.60;99.90
3790;DHT22;1910;49.042;9.028;2023-05-14T02:16:40;8.60;99.90
3790;DHT22;1910;49.042;9.028;2023-05-14T02:19:07;8.60;99.90
3790;DHT22;1910;49.042;9.028;2023-05-14T02:21:32;8.50;99.90
3790;DHT22;1910;49.042;9.028;2023-05-14T02:28:50;8.50;99.90
3790;DHT22;1910;49.042;9.028;2023-05-14T02:36:09;8.40;99.90
3790;DHT22;1910;49.042;9.028;2023-05-14T02:43:26;8.50;99.90
3790;DHT22;1910;49.042;9.028;2023-05-14T02:48:18;8.40;99.90
3790;DHT22;1910;49.042;9.028;2023-05-14T02:50:43;8.30;99.90
3790;DHT22;1910;49.042;9.028;2023-05-14T02:55:35;8.30;99.90
3790;DHT22;1910;49.042;9.028;2023-05-14T02:58:01;8.20;99.90
3790;DHT22;1910;49.042;9.028;2023-05-14T03:00:26;8.10;99.90
3790;DHT22;1910;49.042;9.028;2023-05-14T03:02:52;8.10;99.90
3790;DHT22;1910;49.042;9.028;2023-05-14T03:05:17;9.30;99.90
3790;DHT22;1910;49.042;9.028;2023-05-14T03:10:09;8.00;99.90
3790;DHT22;1910;49.042;9.028;2023-05-14T03:12:35;8.00;99.90
3790;DHT22;1910;49.042;9.028;2023-05-14T03:15:00;8.00;99.90
3790;DHT22;1910;49.042;9.028;2023-05-14T03:27:11;8.10;99.90
3790;DHT22;1910;49.042;9.028;2023-05-14T03:39:20;8.40;99.90
3790;DHT22;1910;49.042;9.028;2023-05-14T03:49:06;8.40;99.90
3790;DHT22;1910;49.042;9.028;2023-05-14T03:51:32;8.40;99.90
3790;DHT22;1910;49.042;9.028;2023-05-14T03:58:51;8.80;99.90
3790;DHT22;1910;49.042;9.028;2023-05-14T04:01:17;8.80;99.90
3790;DHT22;1910;49.042;9.028;2023-05-14T04:03:42;8.80;99.90
3790;DHT22;1910;49.042;9.028;2023-05-14T04:08:34;9.10;99.90
3790;DHT22;1910;49.042;9.028;2023-05-14T04:25:35;9.40;99.90
3790;DHT22;1910;49.042;9.028;2023-05-14T04:28:02;9.60;99.90
3790;DHT22;1910;49.042;9.028;2023-05-14T04:30:27;9.70;99.90
3790;DHT22;1910;49.042;9.028;2023-05-14T04:40:11;10.00;99.90
3790;DHT22;1910;49.042;9.028;2023-05-14T04:42:38;10.50;99.90
3790;DHT22;1910;49.042;9.028;2023-05-14T04:45:04;10.70;99.90
3790;DHT22;1910;49.042;9.028;2023-05-14T04:54:49;11.00;99.90
3790;DHT22;1910;49.042;9.028;2023-05-14T05:19:09;11.60;99.90
3790;DHT22;1910;49.042;9.028;2023-05-14T05:50:48;13.00;99.90
3790;DHT22;1910;49.042;9.028;2023-05-14T06:15:11;14.10;99.90
3790;DHT22;1910;49.042;9.028;2023-05-14T06:20:03;14.00;99.90
3790;DHT22;1910;49.042;9.028;2023-05-14T06:39:36;18.00;99.90
3790;DHT22;1910;49.042;9.028;2023-05-14T07:16:07;31.60;63.60
3790;DHT22;1910;49.042;9.028;2023-05-14T07:55:09;32.70;64.20
3790;DHT22;1910;49.042;9.028;2023-05-14T08:36:32;26.60;56.60
3790;DHT22;1910;49.042;9.028;2023-05-14T08:41:24;24.60;69.10
3790;DHT22;1910;49.042;9.028;2023-05-14T08:44:05;24.50;69.70
3790;DHT22;1910;49.042;9.028;2023-05-14T08:46:35;25.00;69.10
3790;DHT22;1910;49.042;9.028;2023-05-14T08:49:32;25.30;72.20
3790;DHT22;1910;49.042;9.028;2023-05-14T08:52:01;25.70;74.10
3790;DHT22;1910;49.042;9.028;2023-05-14T08:54:30;27.20;68.70
3790;DHT22;1910;49.042;9.028;2023-05-14T09:01:54;33.10;52.50
3790;DHT22;1910;49.042;9.028;2023-05-14T09:04:22;33.00;51.60
3790;DHT22;1910;49.042;9.028;2023-05-14T09:06:52;31.10;52.60
3790;DHT22;1910;49.042;9.028;2023-05-14T09:11:51;29.90;55.40
3790;DHT22;1910;49.042;9.028;2023-05-14T09:14:17;28.40;56.00
3790;DHT22;1910;49.042;9.028;2023-05-14T09:16:44;29.10;59.60
3790;DHT22;1910;49.042;9.028;2023-05-14T09:19:11;28.30;58.10
3790;DHT22;1910;49.042;9.028;2023-05-14T09:26:31;29.40;57.30
3790;DHT22;1910;49.042;9.028;2023-05-14T09:29:00;29.90;56.00
3790;DHT22;1910;49.042;9.028;2023-05-14T09:36:22;29.50;56.40
3790;DHT22;1910;49.042;9.028;2023-05-14T09:46:11;29.40;57.70
3790;DHT22;1910;49.042;9.028;2023-05-14T09:51:05;27.70;56.90
3790;DHT22;1910;49.042;9.028;2023-05-14T09:53:34;27.50;59.30
3790;DHT22;1910;49.042;9.028;2023-05-14T09:56:00;26.70;59.40
3790;DHT22;1910;49.042;9.028;2023-05-14T09:58:25;26.30;61.20
3790;DHT22;1910;49.042;9.028;2023-05-14T10:00:51;25.80;63.70
3790;DHT22;1910;49.042;9.028;2023-05-14T10:03:22;25.50;65.10
3790;DHT22;1910;49.042;9.028;2023-05-14T10:08:28;25.50;65.00
3790;DHT22;1910;49.042;9.028;2023-05-14T10:10:57;25.40;67.60
3790;DHT22;1910;49.042;9.028;2023-05-14T10:13:29;25.10;66.30
3790;DHT22;1910;49.042;9.028;2023-05-14T10:19:10;24.70;66.90
3790;DHT22;1910;49.042;9.028;2023-05-14T10:21:38;24.20;64.80
3790;DHT22;1910;49.042;9.028;2023-05-14T10:24:08;23.70;67.30
3790;DHT22;1910;49.042;9.028;2023-05-14T10:26:36;23.80;68.90
3790;DHT22;1910;49.042;9.028;2023-05-14T10:29:04;23.80;66.70
3790;DHT22;1910;49.042;9.028;2023-05-14T10:37:09;23.60;74.80
3790;DHT22;1910;49.042;9.028;2023-05-14T10:39:46;23.60;75.60
3790;DHT22;1910;49.042;9.028;2023-05-14T10:42:16;23.10;75.20
3790;DHT22;1910;49.042;9.028;2023-05-14T10:47:15;22.90;77.60
3790;DHT22;1910;49.042;9.028;2023-05-14T10:49:43;22.00;76.70
3790;DHT22;1910;49.042;9.028;2023-05-14T10:52:10;22.00;77.30
3790;DHT22;1910;49.042;9.028;2023-05-14T10:54:36;22.40;79.10
3790;DHT22;1910;49.042;9.028;2023-05-14T10:57:02;22.70;79.80
3790;DHT22;1910;49.042;9.028;2023-05-14T10:59:28;23.00;76.80
3790;DHT22;1910;49.042;9.028;2023-05-14T11:01:56;23.10;77.80
3790;DHT22;1910;49.042;9.028;2023-05-14T11:04:26;23.20;81.20
3790;DHT22;1910;49.042;9.028;2023-05-14T11:09:20;23.00;79.50
3790;DHT22;1910;49.042;9.028;2023-05-14T11:11:46;23.00;80.20
3790;DHT22;1910;49.042;9.028;2023-05-14T11:19:05;24.50;77.10
3790;DHT22;1910;49.042;9.028;2023-05-14T11:21:31;25.50;75.80
3790;DHT22;1910;49.042;9.028;2023-05-14T11:23:59;23.40;75.90
3790;DHT22;1910;49.042;9.028;2023-05-14T11:36:10;21.20;85.30
3790;DHT22;1910;49.042;9.028;2023-05-14T11:38:45;20.70;87.10
3790;DHT22;1910;49.042;9.028;2023-05-14T11:46:15;20.80;92.80
3790;DHT22;1910;49.042;9.028;2023-05-14T11:51:06;20.90;92.10
3790;DHT22;1910;49.042;9.028;2023-05-14T11:55:58;20.70;90.30
3790;DHT22;1910;49.042;9.028;2023-05-14T12:00:51;20.80;91.10
3790;DHT22;1910;49.042;9.028;2023-05-14T12:03:20;21.80;90.90
3790;DHT22;1910;49.042;9.028;2023-05-14T12:05:57;20.60;87.60
3790;DHT22;1910;49.042;9.028;2023-05-14T12:08:28;20.90;90.90
3790;DHT22;1910;49.042;9.028;2023-05-14T12:13:21;22.30;89.10
3790;DHT22;1910;49.042;9.028;2023-05-14T12:15:53;22.10;81.20
3790;DHT22;1910;49.042;9.028;2023-05-14T12:20:46;22.10;82.50
3790;DHT22;1910;49.042;9.028;2023-05-14T12:23:12;22.10;83.10
3790;DHT22;1910;49.042;9.028;2023-05-14T12:28:16;22.10;82.70
3790;DHT22;1910;49.042;9.028;2023-05-14T12:30:42;22.10;82.80
3790;DHT22;1910;49.042;9.028;2023-05-14T12:33:08;21.90;83.80
3790;DHT22;1910;49.042;9.028;2023-05-14T12:35:34;21.90;83.80
3790;DHT22;1910;49.042;9.028;2023-05-14T12:38:01;21.70;84.20
3790;DHT22;1910;49.042;9.028;2023-05-14T12:50:11;22.60;85.70
3790;DHT22;1910;49.042;9.028;2023-05-14T12:55:03;22.00;85.50
3790;DHT22;1910;49.042;9.028;2023-05-14T12:59:55;21.80;84.60
3790;DHT22;1910;49.042;9.028;2023-05-14T13:02:21;21.70;85.70
3790;DHT22;1910;49.042;9.028;2023-05-14T13:04:47;21.40;87.50
3790;DHT22;1910;49.042;9.028;2023-05-14T13:07:12;21.10;88.70
3790;DHT22;1910;49.042;9.028;2023-05-14T13:09:38;21.20;90.40
3790;DHT22;1910;49.042;9.028;2023-05-14T13:12:04;21.40;91.30
3790;DHT22;1910;49.042;9.028;2023-05-14T13:14:29;21.70;91.80
3790;DHT22;1910;49.042;9.028;2023-05-14T13:16:55;22.20;90.50
3790;DHT22;1910;49.042;9.028;2023-05-14T13:19:20;22.70;89.60
3790;DHT22;1910;49.042;9.028;2023-05-14T13:21:46;24.50;90.80
3790;DHT22;1910;49.042;9.028;2023-05-14T13:26:37;21.50;91.60
3790;DHT22;1910;49.042;9.028;2023-05-14T13:29:03;21.40;90.40
3790;DHT22;1910;49.042;9.028;2023-05-14T13:31:29;21.00;92.70
3790;DHT22;1910;49.042;9.028;2023-05-14T13:48:32;20.00;93.80
3790;DHT22;1910;49.042;9.028;2023-05-14T13:50:58;20.00;94.20
3790;DHT22;1910;49.042;9.028;2023-05-14T13:53:24;20.00;93.30
3790;DHT22;1910;49.042;9.028;2023-05-14T13:55:50;20.00;93.60
3790;DHT22;1910;49.042;9.028;2023-05-14T13:58:23;19.80;96.40
3790;DHT22;1910;49.042;9.028;2023-05-14T14:00:49;19.30;98.10
3790;DHT22;1910;49.042;9.028;2023-05-14T14:03:14;19.50;98.30
3790;DHT22;1910;49.042;9.028;2023-05-14T14:05:40;19.50;98.00
3790;DHT22;1910;49.042;9.028;2023-05-14T14:10:32;19.60;99.90
3790;DHT22;1910;49.042;9.028;2023-05-14T14:20:15;19.50;95.10
3790;DHT22;1910;49.042;9.028;2023-05-14T14:22:42;19.50;97.90
3790;DHT22;1910;49.042;9.028;2023-05-14T14:25:09;19.50;98.10
3790;DHT22;1910;49.042;9.028;2023-05-14T14:27:35;19.50;95.50
3790;DHT22;1910;49.042;9.028;2023-05-14T14:30:12;19.70;96.80
3790;DHT22;1910;49.042;9.028;2023-05-14T14:32:49;19.30;95.20
3790;DHT22;1910;49.042;9.028;2023-05-14T14:35:17;19.30;95.50
3790;DHT22;1910;49.042;9.028;2023-05-14T14:37:43;18.40;99.90
3790;DHT22;1910;49.042;9.028;2023-05-14T14:40:14;18.40;99.90
3790;DHT22;1910;49.042;9.028;2023-05-14T14:42:40;19.10;99.90
3790;DHT22;1910;49.042;9.028;2023-05-14T14:45:06;19.10;99.90
3790;DHT22;1910;49.042;9.028;2023-05-14T14:47:32;19.50;99.90
3790;DHT22;1910;49.042;9.028;2023-05-14T14:49:57;19.30;99.90
3790;DHT22;1910;49.042;9.028;2023-05-14T14:52:24;19.50;99.90
3790;DHT22;1910;49.042;9.028;2023-05-14T14:54:50;19.60;99.90
3790;DHT22;1910;49.042;9.028;2023-05-14T14:59:42;19.50;98.10
3790;DHT22;1910;49.042;9.028;2023-05-14T15:02:08;19.50;99.90
3790;DHT22;1910;49.042;9.028;2023-05-14T15:04:34;19.50;99.90
3790;DHT22;1910;49.042;9.028;2023-05-14T15:09:26;19.40;99.70
3790;DHT22;1910;49.042;9.028;2023-05-14T15:14:18;19.50;99.90
3790;DHT22;1910;49.042;9.028;2023-05-14T15:21:35;19.20;97.00
3790;DHT22;1910;49.042;9.028;2023-05-14T15:24:02;19.20;97.60
3790;DHT22;1910;49.042;9.028;2023-05-14T15:26:28;19.00;96.80
3790;DHT22;1910;49.042;9.028;2023-05-14T15:28:54;19.20;97.50
3790;DHT22;1910;49.042;9.028;2023-05-14T15:31:20;19.60;97.00
3790;DHT22;1910;49.042;9.028;2023-05-14T15:36:11;19.80;99.20
3790;DHT22;1910;49.042;9.028;2023-05-14T15:43:30;20.20;98.10
3790;DHT22;1910;49.042;9.028;2023-05-14T15:53:14;19.70;98.50
3790;DHT22;1910;49.042;9.028;2023-05-14T15:58:06;19.90;99.10
3790;DHT22;1910;49.042;9.028;2023-05-14T16:02:59;20.00;98.60
3790;DHT22;1910;49.042;9.028;2023-05-14T16:10:19;19.70;94.90
3790;DHT22;1910;49.042;9.028;2023-05-14T16:12:45;19.20;97.00
3790;DHT22;1910;49.042;9.028;2023-05-14T16:20:03;18.70;99.90
3790;DHT22;1910;49.042;9.028;2023-05-14T16:27:23;19.50;98.70
3790;DHT22;1910;49.042;9.028;2023-05-14T16:29:48;19.10;98.40
3790;DHT22;1910;49.042;9.028;2023-05-14T16:46:50;19.50;96.50
3790;DHT22;1910;49.042;9.028;2023-05-14T16:49:16;19.30;97.90
3790;DHT22;1910;49.042;9.028;2023-05-14T16:51:41;19.10;98.50
3790;DHT22;1910;49.042;9.028;2023-05-14T16:56:35;18.40;99.10
3790;DHT22;1910;49.042;9.028;2023-05-14T16:59:00;18.20;99.90
3790;DHT22;1910;49.042;9.028;2023-05-14T17:01:26;18.00;99.90
3790;DHT22;1910;49.042;9.028;2023-05-14T17:03:52;17.70;99.90
3790;DHT22;1910;49.042;9.028;2023-05-14T17:08:43;17.90;99.90
3790;DHT22;1910;49.042;9.028;2023-05-14T17:11:09;18.10;99.90
3790;DHT22;1910;49.042;9.028;2023-05-14T17:18:27;18.20;99.90
3790;DHT22;1910;49.042;9.028;2023-05-14T17:20:53;18.20;99.90
3790;DHT22;1910;49.042;9.028;2023-05-14T17:23:19;18.00;99.90
3790;DHT22;1910;49.042;9.028;2023-05-14T17:25:44;17.90;99.90
3790;DHT22;1910;49.042;9.028;2023-05-14T17:28:10;17.30;99.90
3790;DHT22;1910;49.042;9.028;2023-05-14T17:30:35;17.50;99.90
3790;DHT22;1910;49.042;9.028;2023-05-14T17:33:01;20.20;99.90
3790;DHT22;1910;49.042;9.028;2023-05-14T17:35:27;17.20;99.90
3790;DHT22;1910;49.042;9.028;2023-05-14T17:40:18;17.00;99.90
3790;DHT22;1910;49.042;9.028;2023-05-14T17:42:44;17.00;99.90
3790;DHT22;1910;49.042;9.028;2023-05-14T17:45:10;17.00;99.90
3790;DHT22;1910;49.042;9.028;2023-05-14T17:47:36;17.00;99.90
3790;DHT22;1910;49.042;9.028;2023-05-14T17:50:02;17.00;99.90
3790;DHT22;1910;49.042;9.028;2023-05-14T17:52:27;17.00;99.90
3790;DHT22;1910;49.042;9.028;2023-05-14T17:54:53;17.10;99.90
3790;DHT22;1910;49.042;9.028;2023-05-14T17:57:18;17.20;99.90
3790;DHT22;1910;49.042;9.028;2023-05-14T18:02:10;17.10;99.90
3790;DHT22;1910;49.042;9.028;2023-05-14T18:04:35;17.20;99.90
3790;DHT22;1910;49.042;9.028;2023-05-14T18:07:01;17.20;99.90
3790;DHT22;1910;49.042;9.028;2023-05-14T18:09:27;17.00;99.90
3790;DHT22;1910;49.042;9.028;2023-05-14T18:11:53;16.60;99.90
3790;DHT22;1910;49.042;9.028;2023-05-14T18:19:10;15.50;99.90
3790;DHT22;1910;49.042;9.028;2023-05-14T18:21:36;15.30;99.90
3790;DHT22;1910;49.042;9.028;2023-05-14T18:26:27;15.00;99.90
3790;DHT22;1910;49.042;9.028;2023-05-14T18:28:53;14.90;99.90
3790;DHT22;1910;49.042;9.028;2023-05-14T18:31:19;14.80;99.90
3790;DHT22;1910;49.042;9.028;2023-05-14T18:33:44;14.70;99.90
3790;DHT22;1910;49.042;9.028;2023-05-14T18:36:10;14.50;99.90
3790;DHT22;1910;49.042;9.028;2023-05-14T18:38:36;14.40;99.90
3790;DHT22;1910;49.042;9.028;2023-05-14T18:41:01;14.30;99.90
3790;DHT22;1910;49.042;9.028;2023-05-14T18:43:27;14.10;99.90
3790;DHT22;1910;49.042;9.028;2023-05-14T18:45:52;13.90;99.90
3790;DHT22;1910;49.042;9.028;2023-05-14T18:48:18;14.50;99.90
3790;DHT22;1910;49.042;9.028;2023-05-14T18:50:44;13.60;99.90
3790;DHT22;1910;49.042;9.028;2023-05-14T18:53:09;13.30;99.90
3790;DHT22;1910;49.042;9.028;2023-05-14T18:58:01;13.00;99.90
3790;DHT22;1910;49.042;9.028;2023-05-14T19:00:27;12.80;99.90
3790;DHT22;1910;49.042;9.028;2023-05-14T19:02:52;12.60;99.90
3790;DHT22;1910;49.042;9.028;2023-05-14T19:05:18;12.60;99.90
3790;DHT22;1910;49.042;9.028;2023-05-14T19:07:43;12.50;99.90
3790;DHT22;1910;49.042;9.028;2023-05-14T19:10:12;12.40;99.90
3790;DHT22;1910;49.042;9.028;2023-05-14T19:12:38;12.40;99.90
3790;DHT22;1910;49.042;9.028;2023-05-14T19:15:04;12.40;99.90
3790;DHT22;1910;49.042;9.028;2023-05-14T19:17:30;12.40;99.90
3790;DHT22;1910;49.042;9.028;2023-05-14T19:19:57;12.30;99.90
3790;DHT22;1910;49.042;9.028;2023-05-14T19:22:22;12.30;99.90
3790;DHT22;1910;49.042;9.028;2023-05-14T19:24:48;12.30;99.90
3790;DHT22;1910;49.042;9.028;2023-05-14T19:27:13;12.20;99.90
3790;DHT22;1910;49.042;9.028;2023-05-14T19:29:41;12.10;99.90
3790;DHT22;1910;49.042;9.028;2023-05-14T19:32:07;12.10;99.90
3790;DHT22;1910;49.042;9.028;2023-05-14T19:34:33;11.90;99.90
3790;DHT22;1910;49.042;9.028;2023-05-14T19:36:58;11.90;99.90
3790;DHT22;1910;49.042;9.028;2023-05-14T19:39:24;11.80;99.90
3790;DHT22;1910;49.042;9.028;2023-05-14T19:41:50;11.70;99.90
3790;DHT22;1910;49.042;9.028;2023-05-14T19:46:41;11.60;99.90
3790;DHT22;1910;49.042;9.028;2023-05-14T19:49:07;11.60;99.90
3790;DHT22;1910;49.042;9.028;2023-05-14T19:51:33;11.60;99.90
3790;DHT22;1910;49.042;9.028;2023-05-14T19:53:58;11.60;99.90
3790;DHT22;1910;49.042;9.028;2023-05-14T19:56:24;11.60;99.90
3790;DHT22;1910;49.042;9.028;2023-05-14T19:58:49;11.60;99.90
3790;DHT22;1910;49.042;9.028;2023-05-14T20:01:15;11.60;99.90
3790;DHT22;1910;49.042;9.028;2023-05-14T20:06:07;11.60;99.90
3790;DHT22;1910;49.042;9.028;2023-05-14T20:08:33;11.60;99.90
3790;DHT22;1910;49.042;9.028;2023-05-14T20:10:58;11.60;99.90
3790;DHT22;1910;49.042;9.028;2023-05-14T20:13:24;11.60;99.90
3790;DHT22;1910;49.042;9.028;2023-05-14T20:15:49;11.40;99.90
3790;DHT22;1910;49.042;9.028;2023-05-14T20:18:15;11.40;99.90
3790;DHT22;1910;49.042;9.028;2023-05-14T20:20:41;11.70;99.90
3790;DHT22;1910;49.042;9.028;2023-05-14T20:23:07;11.30;99.90
3790;DHT22;1910;49.042;9.028;2023-05-14T20:25:33;11.20;99.90
3790;DHT22;1910;49.042;9.028;2023-05-14T20:28:00;11.20;99.90
3790;DHT22;1910;49.042;9.028;2023-05-14T20:30:26;11.20;99.90
3790;DHT22;1910;49.042;9.028;2023-05-14T20:32:52;11.20;99.90
3790;DHT22;1910;49.042;9.028;2023-05-14T20:35:18;11.20;99.90
3790;DHT22;1910;49.042;9.028;2023-05-14T20:37:43;11.20;99.90
3790;DHT22;1910;49.042;9.028;2023-05-14T20:40:09;11.20;99.90
3790;DHT22;1910;49.042;9.028;2023-05-14T20:42:38;11.20;99.90
3790;DHT22;1910;49.042;9.028;2023-05-14T20:45:04;11.20;99.90
3790;DHT22;1910;49.042;9.028;2023-05-14T20:47:30;11.30;99.90
3790;DHT22;1910;49.042;9.028;2023-05-14T20:49:58;11.20;99.90
3790;DHT22;1910;49.042;9.028;2023-05-14T20:52:24;11.20;99.90
3790;DHT22;1910;49.042;9.028;2023-05-14T20:54:50;11.10;99.90
3790;DHT22;1910;49.042;9.028;2023-05-14T20:57:17;11.10;99.90
3790;DHT22;1910;49.042;9.028;2023-05-14T20:59:44;11.10;99.90
3790;DHT22;1910;49.042;9.028;2023-05-14T21:02:09;10.80;99.90
3790;DHT22;1910;49.042;9.028;2023-05-14T21:04:36;11.00;99.90
3790;DHT22;1910;49.042;9.028;2023-05-14T21:09:28;11.00;99.90
3790;DHT22;1910;49.042;9.028;2023-05-14T21:11:53;10.90;99.90
3790;DHT22;1910;49.042;9.028;2023-05-14T21:16:46;10.90;99.90
3790;DHT22;1910;49.042;9.028;2023-05-14T21:19:11;10.80;99.90
3790;DHT22;1910;49.042;9.028;2023-05-14T21:21:37;10.90;99.90
3790;DHT22;1910;49.042;9.028;2023-05-14T21:24:03;10.80;99.90
3790;DHT22;1910;49.042;9.028;2023-05-14T21:26:31;10.80;99.90
3790;DHT22;1910;49.042;9.028;2023-05-14T21:28:58;10.80;99.90
3790;DHT22;1910;49.042;9.028;2023-05-14T21:31:23;10.80;99.90
3790;DHT22;1910;49.042;9.028;2023-05-14T21:33:49;10.80;99.90
3790;DHT22;1910;49.042;9.028;2023-05-14T21:36:15;10.80;99.90
3790;DHT22;1910;49.042;9.028;2023-05-14T21:38:40;10.80;99.90
3790;DHT22;1910;49.042;9.028;2023-05-14T21:41:06;10.80;99.90
3790;DHT22;1910;49.042;9.028;2023-05-14T21:43:31;10.80;99.90
3790;DHT22;1910;49.042;9.028;2023-05-14T21:45:57;10.70;99.90
3790;DHT22;1910;49.042;9.028;2023-05-14T21:48:23;10.80;99.90
3790;DHT22;1910;49.042;9.028;2023-05-14T21:50:48;10.80;99.90
3790;DHT22;1910;49.042;9.028;2023-05-14T21:53:14;10.70;99.90
3790;DHT22;1910;49.042;9.028;2023-05-14T21:55:40;10.60;99.90
3790;DHT22;1910;49.042;9.028;2023-05-14T21:58:06;10.60;99.90
3790;DHT22;1910;49.042;9.028;2023-05-14T22:00:31;10.60;99.90
3790;DHT22;1910;49.042;9.028;2023-05-14T22:02:57;10.60;99.90
3790;DHT22;1910;49.042;9.028;2023-05-14T22:05:23;10.60;99.90
3790;DHT22;1910;49.042;9.028;2023-05-14T22:07:49;10.70;99.90
3790;DHT22;1910;49.042;9.028;2023-05-14T22:10:15;10.60;99.90
3790;DHT22;1910;49.042;9.028;2023-05-14T22:12:41;10.60;99.90
3790;DHT22;1910;49.042;9.028;2023-05-14T22:15:08;10.50;99.90
3790;DHT22;1910;49.042;9.028;2023-05-14T22:17:34;10.50;99.90
3790;DHT22;1910;49.042;9.028;2023-05-14T22:20:04;10.50;99.90
3790;DHT22;1910;49.042;9.028;2023-05-14T22:22:35;10.40;99.90
3790;DHT22;1910;49.042;9.028;2023-05-14T22:25:01;10.40;99.90
3790;DHT22;1910;49.042;9.028;2023-05-14T22:27:27;10.50;99.90
3790;DHT22;1910;49.042;9.028;2023-05-14T22:29:52;10.30;99.90
3790;DHT22;1910;49.042;9.028;2023-05-14T22:32:19;10.40;99.90
3790;DHT22;1910;49.042;9.028;2023-05-14T22:34:45;10.50;99.90
3790;DHT22;1910;49.042;9.028;2023-05-14T22:37:10;10.50;99.90
3790;DHT22;1910;49.042;9.028;2023-05-14T22:39:36;10.40;99.90
3790;DHT22;1910;49.042;9.028;2023-05-14T22:42:01;10.30;99.90
3790;DHT22;1910;49.042;9.028;2023-05-14T22:44:27;10.30;99.90
3790;DHT22;1910;49.042;9.028;2023-05-14T22:46:53;10.30;99.90
3790;DHT22;1910;49.042;9.028;2023-05-14T22:49:18;10.30;99.90
3790;DHT22;1910;49.042;9.028;2023-05-14T22:51:44;10.30;99.90
3790;DHT22;1910;49.042;9.028;2023-05-14T22:54:09;10.30;99.90
3790;DHT22;1910;49.042;9.028;2023-05-14T22:56:36;10.20;99.90
3790;DHT22;1910;49.042;9.028;2023-05-14T22:59:02;10.20;99.90
3790;DHT22;1910;49.042;9.028;2023-05-14T23:01:28;10.20;99.90
3790;DHT22;1910;49.042;9.028;2023-05-14T23:03:54;10.20;99.90
3790;DHT22;1910;49.042;9.028;2023-05-14T23:06:20;10.30;99.90
3790;DHT22;1910;49.042;9.028;2023-05-14T23:11:11;10.40;99.90
3790;DHT22;1910;49.042;9.028;2023-05-14T23:13:37;10.50;99.90
3790;DHT22;1910;49.042;9.028;2023-05-14T23:16:03;10.40;99.90
3790;DHT22;1910;49.042;9.028;2023-05-14T23:18:29;10.30;99.90
3790;DHT22;1910;49.042;9.028;2023-05-14T23:20:55;10.30;99.90
3790;DHT22;1910;49.042;9.028;2023-05-14T23:23:20;10.20;99.90
3790;DHT22;1910;49.042;9.028;2023-05-14T23:25:46;10.10;99.90
3790;DHT22;1910;49.042;9.028;2023-05-14T23:28:17;9.90;99.90
3790;DHT22;1910;49.042;9.028;2023-05-14T23:30:43;9.90;99.90
3790;DHT22;1910;49.042;9.028;2023-05-14T23:33:08;9.90;99.90
3790;DHT22;1910;49.042;9.028;2023-05-14T23:35:38;9.80;99.90
3790;DHT22;1910;49.042;9.028;2023-05-14T23:38:04;9.80;99.90
3790;DHT22;1910;49.042;9.028;2023-05-14T23:40:31;9.90;99.90
3790;DHT22;1910;49.042;9.028;2023-05-14T23:42:57;9.90;99.90
3790;DHT22;1910;49.042;9.028;2023-05-14T23:45:26;9.90;99.90
3790;DHT22;1910;49.042;9.028;2023-05-14T23:47:52;9.90;99.90
3790;DHT22;1910;49.042;9.028;2023-05-14T23:50:18;10.00;99.90
3790;DHT22;1910;49.042;9.028;2023-05-14T23:55:10;10.10;99.90
3790;DHT22;1910;49.042;9.028;2023-05-14T23:57:36;10.10;99.90
